sensor_id;sensor_type;location;lat;lon;timestamp;P1;durP1;ratioP1;P2;durP2;ratioP2
7813;SDS011;3952;48.364;16.022;2023-03-14T00:00:15;7.13;;;6.47;;
7813;SDS011;3952;48.364;16.022;2023-03-14T00:02:44;8.60;;;7.37;;
7813;SDS011;3952;48.364;16.022;2023-03-14T00:05:11;15.07;;;9.63;;
7813;SDS011;3952;48.364;16.022;2023-03-14T00:07:39;8.73;;;6.53;;
7813;SDS011;3952;48.364;16.022;2023-03-14T00:10:07;5.07;;;4.67;;
7813;SDS011;3952;48.364;16.022;2023-03-14T00:12:37;4.17;;;3.90;;
7813;SDS011;3952;48.364;16.022;2023-03-14T00:15:05;5.50;;;5.00;;
7813;SDS011;3952;48.364;16.022;2023-03-14T00:17:34;5.60;;;5.10;;
7813;SDS011;3952;48.364;16.022;2023-03-14T00:20:03;5.53;;;5.07;;
7813;SDS011;3952;48.364;16.022;2023-03-14T00:22:34;9.00;;;5.93;;
7813;SDS011;3952;48.364;16.022;2023-03-14T00:25:02;5.50;;;5.00;;
7813;SDS011;3952;48.364;16.022;2023-03-14T00:27:31;8.97;;;7.57;;
7813;SDS011;3952;48.364;16.022;2023-03-14T00:29:59;11.37;;;8.23;;
7813;SDS011;3952;48.364;16.022;2023-03-14T00:32:26;9.63;;;6.60;;
7813;SDS011;3952;48.364;16.022;2023-03-14T00:34:53;13.33;;;8.77;;
7813;SDS011;3952;48.364;16.022;2023-03-14T00:37:22;10.47;;;7.10;;
7813;SDS011;3952;48.364;16.022;2023-03-14T00:39:51;7.80;;;6.90;;
7813;SDS011;3952;48.364;16.022;2023-03-14T00:42:18;19.00;;;9.90;;
7813;SDS011;3952;48.364;16.022;2023-03-14T00:44:45;7.70;;;6.77;;
7813;SDS011;3952;48.364;16.022;2023-03-14T00:47:12;12.17;;;7.43;;
7813;SDS011;3952;48.364;16.022;2023-03-14T00:49:39;10.20;;;7.23;;
7813;SDS011;3952;48.364;16.022;2023-03-14T00:52:08;5.80;;;5.27;;
7813;SDS011;3952;48.364;16.022;2023-03-14T00:54:37;5.37;;;4.87;;
7813;SDS011;3952;48.364;16.022;2023-03-14T00:57:04;9.77;;;7.77;;
7813;SDS011;3952;48.364;16.022;2023-03-14T00:59:31;9.40;;;7.17;;
7813;SDS011;3952;48.364;16.022;2023-03-14T01:01:58;7.07;;;6.47;;
7813;SDS011;3952;48.364;16.022;2023-03-14T01:04:26;7.30;;;6.60;;
7813;SDS011;3952;48.364;16.022;2023-03-14T01:06:55;20.77;;;11.33;;
7813;SDS011;3952;48.364;16.022;2023-03-14T01:09:22;21.73;;;13.23;;
7813;SDS011;3952;48.364;16.022;2023-03-14T01:11:51;11.93;;;9.80;;
7813;SDS011;3952;48.364;16.022;2023-03-14T01:14:18;8.00;;;7.20;;
7813;SDS011;3952;48.364;16.022;2023-03-14T01:16:45;7.57;;;6.77;;
7813;SDS011;3952;48.364;16.022;2023-03-14T01:19:12;6.90;;;6.10;;
7813;SDS011;3952;48.364;16.022;2023-03-14T01:21:40;7.03;;;6.33;;
7813;SDS011;3952;48.364;16.022;2023-03-14T01:24:07;6.67;;;5.70;;
7813;SDS011;3952;48.364;16.022;2023-03-14T01:26:37;6.13;;;5.53;;
7813;SDS011;3952;48.364;16.022;2023-03-14T01:29:05;6.17;;;5.57;;
7813;SDS011;3952;48.364;16.022;2023-03-14T01:31:33;5.20;;;4.70;;
7813;SDS011;3952;48.364;16.022;2023-03-14T01:34:00;7.87;;;4.57;;
7813;SDS011;3952;48.364;16.022;2023-03-14T01:36:27;4.50;;;4.07;;
7813;SDS011;3952;48.364;16.022;2023-03-14T01:38:54;5.40;;;4.90;;
7813;SDS011;3952;48.364;16.022;2023-03-14T01:41:22;6.83;;;4.13;;
7813;SDS011;3952;48.364;16.022;2023-03-14T01:43:51;5.73;;;4.23;;
7813;SDS011;3952;48.364;16.022;2023-03-14T01:46:25;5.60;;;4.00;;
7813;SDS011;3952;48.364;16.022;2023-03-14T01:48:56;4.77;;;3.93;;
7813;SDS011;3952;48.364;16.022;2023-03-14T01:51:29;5.20;;;4.70;;
7813;SDS011;3952;48.364;16.022;2023-03-14T01:54:03;4.40;;;4.10;;
7813;SDS011;3952;48.364;16.022;2023-03-14T01:56:35;5.00;;;4.50;;
7813;SDS011;3952;48.364;16.022;2023-03-14T01:59:03;5.10;;;4.30;;
7813;SDS011;3952;48.364;16.022;2023-03-14T02:01:34;5.27;;;4.43;;
7813;SDS011;3952;48.364;16.022;2023-03-14T02:04:04;5.83;;;4.40;;
7813;SDS011;3952;48.364;16.022;2023-03-14T02:06:35;5.37;;;4.47;;
7813;SDS011;3952;48.364;16.022;2023-03-14T02:09:08;5.50;;;4.70;;
7813;SDS011;3952;48.364;16.022;2023-03-14T02:11:36;5.60;;;4.10;;
7813;SDS011;3952;48.364;16.022;2023-03-14T02:14:03;4.80;;;4.40;;
7813;SDS011;3952;48.364;16.022;2023-03-14T02:16:31;4.90;;;4.40;;
7813;SDS011;3952;48.364;16.022;2023-03-14T02:18:59;4.50;;;4.10;;
7813;SDS011;3952;48.364;16.022;2023-03-14T02:21:29;5.00;;;4.60;;
7813;SDS011;3952;48.364;16.022;2023-03-14T02:24:09;5.33;;;4.70;;
7813;SDS011;3952;48.364;16.022;2023-03-14T02:26:43;5.17;;;4.70;;
7813;SDS011;3952;48.364;16.022;2023-03-14T02:29:39;4.47;;;4.07;;
7813;SDS011;3952;48.364;16.022;2023-03-14T02:32:12;5.47;;;5.07;;
7813;SDS011;3952;48.364;16.022;2023-03-14T02:34:41;5.73;;;4.90;;
7813;SDS011;3952;48.364;16.022;2023-03-14T02:37:10;5.13;;;4.63;;
7813;SDS011;3952;48.364;16.022;2023-03-14T02:39:40;7.03;;;5.30;;
7813;SDS011;3952;48.364;16.022;2023-03-14T02:42:11;5.33;;;4.93;;
7813;SDS011;3952;48.364;16.022;2023-03-14T02:44:48;5.37;;;4.97;;
7813;SDS011;3952;48.364;16.022;2023-03-14T02:47:18;5.77;;;5.23;;
7813;SDS011;3952;48.364;16.022;2023-03-14T02:49:50;8.27;;;5.20;;
7813;SDS011;3952;48.364;16.022;2023-03-14T02:52:20;5.07;;;4.57;;
7813;SDS011;3952;48.364;16.022;2023-03-14T02:54:47;5.53;;;5.03;;
7813;SDS011;3952;48.364;16.022;2023-03-14T02:57:14;5.30;;;4.90;;
7813;SDS011;3952;48.364;16.022;2023-03-14T02:59:41;5.67;;;5.17;;
7813;SDS011;3952;48.364;16.022;2023-03-14T03:02:10;6.07;;;5.57;;
7813;SDS011;3952;48.364;16.022;2023-03-14T03:04:37;7.43;;;5.40;;
7813;SDS011;3952;48.364;16.022;2023-03-14T03:07:05;7.30;;;5.53;;
7813;SDS011;3952;48.364;16.022;2023-03-14T03:09:32;8.10;;;5.50;;
7813;SDS011;3952;48.364;16.022;2023-03-14T03:11:59;5.33;;;5.03;;
7813;SDS011;3952;48.364;16.022;2023-03-14T03:14:26;5.90;;;5.40;;
7813;SDS011;3952;48.364;16.022;2023-03-14T03:16:54;5.77;;;5.37;;
7813;SDS011;3952;48.364;16.022;2023-03-14T03:19:22;5.60;;;5.10;;
7813;SDS011;3952;48.364;16.022;2023-03-14T03:21:50;6.57;;;5.90;;
7813;SDS011;3952;48.364;16.022;2023-03-14T03:24:17;7.77;;;5.60;;
7813;SDS011;3952;48.364;16.022;2023-03-14T03:26:44;6.67;;;6.00;;
7813;SDS011;3952;48.364;16.022;2023-03-14T03:29:12;6.37;;;5.90;;
7813;SDS011;3952;48.364;16.022;2023-03-14T03:31:39;6.03;;;5.50;;
7813;SDS011;3952;48.364;16.022;2023-03-14T03:34:06;5.83;;;5.43;;
7813;SDS011;3952;48.364;16.022;2023-03-14T03:36:35;5.80;;;5.20;;
7813;SDS011;3952;48.364;16.022;2023-03-14T03:39:02;5.73;;;4.97;;
7813;SDS011;3952;48.364;16.022;2023-03-14T03:41:30;5.90;;;5.43;;
7813;SDS011;3952;48.364;16.022;2023-03-14T03:43:57;5.73;;;5.33;;
7813;SDS011;3952;48.364;16.022;2023-03-14T03:46:25;5.43;;;5.03;;
7813;SDS011;3952;48.364;16.022;2023-03-14T03:48:56;5.57;;;5.17;;
7813;SDS011;3952;48.364;16.022;2023-03-14T03:51:24;6.37;;;5.77;;
7813;SDS011;3952;48.364;16.022;2023-03-14T03:53:53;5.77;;;5.27;;
7813;SDS011;3952;48.364;16.022;2023-03-14T03:56:22;5.83;;;5.33;;
7813;SDS011;3952;48.364;16.022;2023-03-14T03:58:49;5.87;;;5.37;;
7813;SDS011;3952;48.364;16.022;2023-03-14T04:01:16;6.03;;;5.47;;
7813;SDS011;3952;48.364;16.022;2023-03-14T04:03:43;6.33;;;5.73;;
7813;SDS011;3952;48.364;16.022;2023-03-14T04:06:11;6.23;;;5.47;;
7813;SDS011;3952;48.364;16.022;2023-03-14T04:08:39;6.20;;;5.63;;
7813;SDS011;3952;48.364;16.022;2023-03-14T04:11:08;7.03;;;5.70;;
7813;SDS011;3952;48.364;16.022;2023-03-14T04:13:35;7.27;;;5.53;;
7813;SDS011;3952;48.364;16.022;2023-03-14T04:16:02;6.37;;;5.37;;
7813;SDS011;3952;48.364;16.022;2023-03-14T04:18:30;5.60;;;5.13;;
7813;SDS011;3952;48.364;16.022;2023-03-14T04:20:57;4.97;;;4.67;;
7813;SDS011;3952;48.364;16.022;2023-03-14T04:23:24;5.80;;;5.20;;
7813;SDS011;3952;48.364;16.022;2023-03-14T04:25:52;6.43;;;6.03;;
7813;SDS011;3952;48.364;16.022;2023-03-14T04:28:21;5.63;;;5.13;;
7813;SDS011;3952;48.364;16.022;2023-03-14T04:30:48;6.63;;;5.53;;
7813;SDS011;3952;48.364;16.022;2023-03-14T04:33:16;6.10;;;5.50;;
7813;SDS011;3952;48.364;16.022;2023-03-14T04:35:43;5.53;;;4.93;;
7813;SDS011;3952;48.364;16.022;2023-03-14T04:38:11;7.90;;;5.90;;
7813;SDS011;3952;48.364;16.022;2023-03-14T04:40:39;6.10;;;5.50;;
7813;SDS011;3952;48.364;16.022;2023-03-14T04:43:07;6.50;;;6.00;;
7813;SDS011;3952;48.364;16.022;2023-03-14T04:45:36;6.20;;;5.70;;
7813;SDS011;3952;48.364;16.022;2023-03-14T04:48:03;6.40;;;6.00;;
7813;SDS011;3952;48.364;16.022;2023-03-14T04:50:31;5.47;;;5.10;;
7813;SDS011;3952;48.364;16.022;2023-03-14T04:52:58;5.77;;;5.33;;
7813;SDS011;3952;48.364;16.022;2023-03-14T04:55:25;5.77;;;5.30;;
7813;SDS011;3952;48.364;16.022;2023-03-14T04:57:52;5.63;;;5.17;;
7813;SDS011;3952;48.364;16.022;2023-03-14T05:00:20;5.73;;;5.17;;
7813;SDS011;3952;48.364;16.022;2023-03-14T05:02:48;6.07;;;5.63;;
7813;SDS011;3952;48.364;16.022;2023-03-14T05:05:16;6.50;;;5.90;;
7813;SDS011;3952;48.364;16.022;2023-03-14T05:07:43;6.20;;;5.70;;
7813;SDS011;3952;48.364;16.022;2023-03-14T05:10:10;6.50;;;5.83;;
7813;SDS011;3952;48.364;16.022;2023-03-14T05:12:38;6.30;;;5.70;;
7813;SDS011;3952;48.364;16.022;2023-03-14T05:15:05;9.70;;;6.33;;
7813;SDS011;3952;48.364;16.022;2023-03-14T05:17:34;7.13;;;6.53;;
7813;SDS011;3952;48.364;16.022;2023-03-14T05:20:03;6.77;;;6.23;;
7813;SDS011;3952;48.364;16.022;2023-03-14T05:22:35;6.80;;;6.00;;
7813;SDS011;3952;48.364;16.022;2023-03-14T05:25:02;7.00;;;6.30;;
7813;SDS011;3952;48.364;16.022;2023-03-14T05:27:30;8.03;;;6.53;;
7813;SDS011;3952;48.364;16.022;2023-03-14T05:29:57;6.67;;;6.07;;
7813;SDS011;3952;48.364;16.022;2023-03-14T05:32:24;8.80;;;5.90;;
7813;SDS011;3952;48.364;16.022;2023-03-14T05:34:51;7.87;;;7.07;;
7813;SDS011;3952;48.364;16.022;2023-03-14T05:37:24;8.00;;;7.30;;
7813;SDS011;3952;48.364;16.022;2023-03-14T05:39:52;8.80;;;7.97;;
7813;SDS011;3952;48.364;16.022;2023-03-14T05:42:20;28.63;;;19.90;;
7813;SDS011;3952;48.364;16.022;2023-03-14T05:44:47;10.80;;;9.70;;
7813;SDS011;3952;48.364;16.022;2023-03-14T05:47:14;8.10;;;7.03;;
7813;SDS011;3952;48.364;16.022;2023-03-14T05:49:41;7.10;;;6.50;;
7813;SDS011;3952;48.364;16.022;2023-03-14T05:52:08;9.70;;;6.70;;
7813;SDS011;3952;48.364;16.022;2023-03-14T05:54:37;7.37;;;6.80;;
7813;SDS011;3952;48.364;16.022;2023-03-14T05:57:04;9.87;;;8.30;;
7813;SDS011;3952;48.364;16.022;2023-03-14T05:59:32;17.97;;;13.80;;
7813;SDS011;3952;48.364;16.022;2023-03-14T06:01:59;14.83;;;12.53;;
7813;SDS011;3952;48.364;16.022;2023-03-14T06:04:27;18.10;;;11.70;;
7813;SDS011;3952;48.364;16.022;2023-03-14T06:06:54;13.93;;;10.60;;
7813;SDS011;3952;48.364;16.022;2023-03-14T06:09:21;9.33;;;8.13;;
7813;SDS011;3952;48.364;16.022;2023-03-14T06:11:50;24.40;;;16.33;;
7813;SDS011;3952;48.364;16.022;2023-03-14T06:14:17;11.63;;;8.97;;
7813;SDS011;3952;48.364;16.022;2023-03-14T06:16:44;7.23;;;6.37;;
7813;SDS011;3952;48.364;16.022;2023-03-14T06:19:13;21.73;;;13.37;;
7813;SDS011;3952;48.364;16.022;2023-03-14T06:21:40;18.23;;;11.30;;
7813;SDS011;3952;48.364;16.022;2023-03-14T06:24:07;8.60;;;7.67;;
7813;SDS011;3952;48.364;16.022;2023-03-14T06:26:34;8.50;;;7.60;;
7813;SDS011;3952;48.364;16.022;2023-03-14T06:29:03;7.83;;;7.20;;
7813;SDS011;3952;48.364;16.022;2023-03-14T06:31:30;8.10;;;7.30;;
7813;SDS011;3952;48.364;16.022;2023-03-14T06:33:58;8.47;;;7.77;;
7813;SDS011;3952;48.364;16.022;2023-03-14T06:36:25;6.97;;;6.33;;
7813;SDS011;3952;48.364;16.022;2023-03-14T06:38:52;7.13;;;6.43;;
7813;SDS011;3952;48.364;16.022;2023-03-14T06:41:19;7.63;;;5.67;;
7813;SDS011;3952;48.364;16.022;2023-03-14T06:43:48;7.30;;;5.50;;
7813;SDS011;3952;48.364;16.022;2023-03-14T06:46:17;5.50;;;4.90;;
7813;SDS011;3952;48.364;16.022;2023-03-14T06:48:44;6.33;;;4.80;;
7813;SDS011;3952;48.364;16.022;2023-03-14T06:51:12;4.80;;;4.40;;
7813;SDS011;3952;48.364;16.022;2023-03-14T06:53:39;4.43;;;4.13;;
7813;SDS011;3952;48.364;16.022;2023-03-14T06:56:07;6.47;;;4.33;;
7813;SDS011;3952;48.364;16.022;2023-03-14T06:58:34;4.47;;;4.10;;
7813;SDS011;3952;48.364;16.022;2023-03-14T07:01:02;4.77;;;4.20;;
7813;SDS011;3952;48.364;16.022;2023-03-14T07:03:30;4.13;;;3.83;;
7813;SDS011;3952;48.364;16.022;2023-03-14T07:05:58;4.13;;;3.80;;
7813;SDS011;3952;48.364;16.022;2023-03-14T07:08:25;5.83;;;3.17;;
7813;SDS011;3952;48.364;16.022;2023-03-14T07:10:52;3.07;;;2.87;;
7813;SDS011;3952;48.364;16.022;2023-03-14T07:13:22;4.23;;;3.57;;
7813;SDS011;3952;48.364;16.022;2023-03-14T07:15:49;3.73;;;3.43;;
7813;SDS011;3952;48.364;16.022;2023-03-14T07:18:16;3.37;;;3.07;;
7813;SDS011;3952;48.364;16.022;2023-03-14T07:20:46;3.30;;;3.00;;
7813;SDS011;3952;48.364;16.022;2023-03-14T07:23:14;3.77;;;3.40;;
7813;SDS011;3952;48.364;16.022;2023-03-14T07:25:41;2.90;;;2.70;;
7813;SDS011;3952;48.364;16.022;2023-03-14T07:28:08;2.87;;;2.67;;
7813;SDS011;3952;48.364;16.022;2023-03-14T07:30:35;4.10;;;2.73;;
7813;SDS011;3952;48.364;16.022;2023-03-14T07:33:02;4.37;;;2.20;;
7813;SDS011;3952;48.364;16.022;2023-03-14T07:35:30;2.77;;;2.57;;
7813;SDS011;3952;48.364;16.022;2023-03-14T07:37:58;2.50;;;2.30;;
7813;SDS011;3952;48.364;16.022;2023-03-14T07:40:25;2.70;;;2.50;;
7813;SDS011;3952;48.364;16.022;2023-03-14T07:42:53;2.73;;;2.53;;
7813;SDS011;3952;48.364;16.022;2023-03-14T07:45:20;6.03;;;2.77;;
7813;SDS011;3952;48.364;16.022;2023-03-14T07:47:47;2.60;;;2.50;;
7813;SDS011;3952;48.364;16.022;2023-03-14T07:50:15;2.30;;;2.20;;
7813;SDS011;3952;48.364;16.022;2023-03-14T07:52:42;2.30;;;2.10;;
7813;SDS011;3952;48.364;16.022;2023-03-14T07:55:11;2.40;;;2.20;;
7813;SDS011;3952;48.364;16.022;2023-03-14T07:57:38;2.10;;;2.00;;
7813;SDS011;3952;48.364;16.022;2023-03-14T08:00:06;2.03;;;1.93;;
7813;SDS011;3952;48.364;16.022;2023-03-14T08:02:36;2.03;;;1.93;;
7813;SDS011;3952;48.364;16.022;2023-03-14T08:05:03;2.37;;;1.60;;
7813;SDS011;3952;48.364;16.022;2023-03-14T08:07:31;1.60;;;1.50;;
7813;SDS011;3952;48.364;16.022;2023-03-14T08:09:58;1.20;;;1.20;;
7813;SDS011;3952;48.364;16.022;2023-03-14T08:12:27;1.47;;;1.10;;
7813;SDS011;3952;48.364;16.022;2023-03-14T08:14:54;1.27;;;1.27;;
7813;SDS011;3952;48.364;16.022;2023-03-14T08:17:21;1.13;;;1.13;;
7813;SDS011;3952;48.364;16.022;2023-03-14T08:19:48;1.33;;;1.33;;
7813;SDS011;3952;48.364;16.022;2023-03-14T08:22:15;1.00;;;1.00;;
7813;SDS011;3952;48.364;16.022;2023-03-14T08:24:43;1.40;;;1.30;;
7813;SDS011;3952;48.364;16.022;2023-03-14T08:27:10;0.80;;;0.80;;
7813;SDS011;3952;48.364;16.022;2023-03-14T08:29:38;1.43;;;1.20;;
7813;SDS011;3952;48.364;16.022;2023-03-14T08:32:07;1.43;;;1.00;;
7813;SDS011;3952;48.364;16.022;2023-03-14T08:34:34;1.10;;;1.10;;
7813;SDS011;3952;48.364;16.022;2023-03-14T08:37:01;1.03;;;1.03;;
7813;SDS011;3952;48.364;16.022;2023-03-14T08:39:28;0.80;;;0.80;;
7813;SDS011;3952;48.364;16.022;2023-03-14T08:41:56;1.10;;;1.10;;
7813;SDS011;3952;48.364;16.022;2023-03-14T08:44:23;0.90;;;0.90;;
7813;SDS011;3952;48.364;16.022;2023-03-14T08:46:51;0.67;;;0.67;;
7813;SDS011;3952;48.364;16.022;2023-03-14T08:49:19;0.53;;;0.53;;
7813;SDS011;3952;48.364;16.022;2023-03-14T08:51:46;0.70;;;0.70;;
7813;SDS011;3952;48.364;16.022;2023-03-14T08:54:13;0.57;;;0.50;;
7813;SDS011;3952;48.364;16.022;2023-03-14T08:56:40;0.60;;;0.60;;
7813;SDS011;3952;48.364;16.022;2023-03-14T08:59:07;0.53;;;0.53;;
7813;SDS011;3952;48.364;16.022;2023-03-14T09:01:36;0.60;;;0.60;;
7813;SDS011;3952;48.364;16.022;2023-03-14T09:04:05;0.60;;;0.60;;
7813;SDS011;3952;48.364;16.022;2023-03-14T09:06:33;1.50;;;0.87;;
7813;SDS011;3952;48.364;16.022;2023-03-14T09:09:00;0.70;;;0.70;;
7813;SDS011;3952;48.364;16.022;2023-03-14T09:11:28;0.40;;;0.40;;
7813;SDS011;3952;48.364;16.022;2023-03-14T09:13:57;0.60;;;0.60;;
7813;SDS011;3952;48.364;16.022;2023-03-14T09:16:24;0.70;;;0.70;;
7813;SDS011;3952;48.364;16.022;2023-03-14T09:18:51;1.70;;;1.00;;
7813;SDS011;3952;48.364;16.022;2023-03-14T09:21:21;1.10;;;0.90;;
7813;SDS011;3952;48.364;16.022;2023-03-14T09:23:48;1.57;;;1.00;;
7813;SDS011;3952;48.364;16.022;2023-03-14T09:26:15;2.63;;;0.87;;
7813;SDS011;3952;48.364;16.022;2023-03-14T09:28:42;1.77;;;1.27;;
7813;SDS011;3952;48.364;16.022;2023-03-14T09:31:10;1.13;;;0.97;;
7813;SDS011;3952;48.364;16.022;2023-03-14T09:33:38;1.40;;;0.93;;
7813;SDS011;3952;48.364;16.022;2023-03-14T09:36:06;2.63;;;0.70;;
7813;SDS011;3952;48.364;16.022;2023-03-14T09:38:36;0.80;;;0.80;;
7813;SDS011;3952;48.364;16.022;2023-03-14T09:41:09;0.90;;;0.90;;
7813;SDS011;3952;48.364;16.022;2023-03-14T09:43:41;0.57;;;0.57;;
7813;SDS011;3952;48.364;16.022;2023-03-14T09:46:10;0.70;;;0.70;;
7813;SDS011;3952;48.364;16.022;2023-03-14T09:48:42;0.60;;;0.60;;
7813;SDS011;3952;48.364;16.022;2023-03-14T09:51:17;0.60;;;0.60;;
7813;SDS011;3952;48.364;16.022;2023-03-14T09:53:49;0.97;;;0.97;;
7813;SDS011;3952;48.364;16.022;2023-03-14T09:56:17;0.50;;;0.50;;
7813;SDS011;3952;48.364;16.022;2023-03-14T09:58:48;0.70;;;0.70;;
7813;SDS011;3952;48.364;16.022;2023-03-14T10:01:19;1.03;;;0.60;;
7813;SDS011;3952;48.364;16.022;2023-03-14T10:03:50;0.73;;;0.40;;
7813;SDS011;3952;48.364;16.022;2023-03-14T10:06:22;0.70;;;0.70;;
7813;SDS011;3952;48.364;16.022;2023-03-14T10:08:53;0.60;;;0.60;;
7813;SDS011;3952;48.364;16.022;2023-03-14T10:11:22;0.30;;;0.30;;
7813;SDS011;3952;48.364;16.022;2023-03-14T10:14:01;2.50;;;0.50;;
7813;SDS011;3952;48.364;16.022;2023-03-14T10:16:32;0.50;;;0.50;;
7813;SDS011;3952;48.364;16.022;2023-03-14T10:19:04;0.30;;;0.30;;
7813;SDS011;3952;48.364;16.022;2023-03-14T10:21:36;1.60;;;0.40;;
7813;SDS011;3952;48.364;16.022;2023-03-14T10:24:16;0.60;;;0.50;;
7813;SDS011;3952;48.364;16.022;2023-03-14T10:26:49;0.50;;;0.50;;
7813;SDS011;3952;48.364;16.022;2023-03-14T10:29:20;0.67;;;0.67;;
7813;SDS011;3952;48.364;16.022;2023-03-14T10:31:50;0.60;;;0.60;;
7813;SDS011;3952;48.364;16.022;2023-03-14T10:34:21;0.70;;;0.70;;
7813;SDS011;3952;48.364;16.022;2023-03-14T10:36:54;0.50;;;0.50;;
7813;SDS011;3952;48.364;16.022;2023-03-14T10:39:30;0.60;;;0.60;;
7813;SDS011;3952;48.364;16.022;2023-03-14T10:42:05;0.73;;;0.73;;
7813;SDS011;3952;48.364;16.022;2023-03-14T10:44:39;0.80;;;0.80;;
7813;SDS011;3952;48.364;16.022;2023-03-14T10:47:12;1.40;;;0.80;;
7813;SDS011;3952;48.364;16.022;2023-03-14T10:49:44;1.00;;;1.00;;
7813;SDS011;3952;48.364;16.022;2023-03-14T10:52:17;0.90;;;0.90;;
7813;SDS011;3952;48.364;16.022;2023-03-14T10:54:49;0.83;;;0.83;;
7813;SDS011;3952;48.364;16.022;2023-03-14T10:57:22;1.40;;;1.17;;
7813;SDS011;3952;48.364;16.022;2023-03-14T10:59:51;0.80;;;0.80;;
7813;SDS011;3952;48.364;16.022;2023-03-14T11:02:32;1.07;;;0.90;;
7813;SDS011;3952;48.364;16.022;2023-03-14T11:05:17;4.67;;;1.40;;
7813;SDS011;3952;48.364;16.022;2023-03-14T11:07:52;1.47;;;1.10;;
7813;SDS011;3952;48.364;16.022;2023-03-14T11:10:25;0.93;;;0.70;;
7813;SDS011;3952;48.364;16.022;2023-03-14T11:13:00;1.80;;;0.70;;
7813;SDS011;3952;48.364;16.022;2023-03-14T11:15:40;0.83;;;0.70;;
7813;SDS011;3952;48.364;16.022;2023-03-14T11:18:20;1.30;;;0.70;;
7813;SDS011;3952;48.364;16.022;2023-03-14T11:21:11;1.37;;;0.80;;
7813;SDS011;3952;48.364;16.022;2023-03-14T11:23:46;1.17;;;1.03;;
7813;SDS011;3952;48.364;16.022;2023-03-14T11:26:27;2.40;;;0.90;;
7813;SDS011;3952;48.364;16.022;2023-03-14T11:29:07;1.33;;;0.70;;
7813;SDS011;3952;48.364;16.022;2023-03-14T11:31:42;3.07;;;1.10;;
7813;SDS011;3952;48.364;16.022;2023-03-14T11:34:13;4.20;;;1.10;;
7813;SDS011;3952;48.364;16.022;2023-03-14T11:36:44;1.57;;;1.00;;
7813;SDS011;3952;48.364;16.022;2023-03-14T11:39:18;1.37;;;1.10;;
7813;SDS011;3952;48.364;16.022;2023-03-14T11:41:49;2.87;;;1.40;;
7813;SDS011;3952;48.364;16.022;2023-03-14T11:44:20;0.67;;;0.67;;
7813;SDS011;3952;48.364;16.022;2023-03-14T11:46:52;0.40;;;0.40;;
7813;SDS011;3952;48.364;16.022;2023-03-14T11:49:26;0.47;;;0.47;;
7813;SDS011;3952;48.364;16.022;2023-03-14T11:52:05;0.37;;;0.37;;
7813;SDS011;3952;48.364;16.022;2023-03-14T11:54:38;1.40;;;0.30;;
7813;SDS011;3952;48.364;16.022;2023-03-14T11:57:14;0.87;;;0.50;;
7813;SDS011;3952;48.364;16.022;2023-03-14T11:59:46;0.50;;;0.30;;
7813;SDS011;3952;48.364;16.022;2023-03-14T12:02:20;0.97;;;0.33;;
7813;SDS011;3952;48.364;16.022;2023-03-14T12:08:03;0.67;;;0.40;;
7813;SDS011;3952;48.364;16.022;2023-03-14T12:10:58;0.57;;;0.30;;
7813;SDS011;3952;48.364;16.022;2023-03-14T12:13:31;0.10;;;0.10;;
7813;SDS011;3952;48.364;16.022;2023-03-14T12:16:03;0.63;;;0.30;;
7813;SDS011;3952;48.364;16.022;2023-03-14T12:18:33;0.20;;;0.20;;
7813;SDS011;3952;48.364;16.022;2023-03-14T12:21:04;0.50;;;0.50;;
7813;SDS011;3952;48.364;16.022;2023-03-14T12:23:34;0.33;;;0.20;;
7813;SDS011;3952;48.364;16.022;2023-03-14T12:26:13;0.17;;;0.17;;
7813;SDS011;3952;48.364;16.022;2023-03-14T12:28:44;1.33;;;0.50;;
7813;SDS011;3952;48.364;16.022;2023-03-14T12:34:27;1.87;;;0.33;;
7813;SDS011;3952;48.364;16.022;2023-03-14T12:37:01;0.73;;;0.40;;
7813;SDS011;3952;48.364;16.022;2023-03-14T12:42:51;2.40;;;0.80;;
7813;SDS011;3952;48.364;16.022;2023-03-14T12:45:27;0.90;;;0.60;;
7813;SDS011;3952;48.364;16.022;2023-03-14T12:48:03;0.90;;;0.70;;
7813;SDS011;3952;48.364;16.022;2023-03-14T12:50:37;0.50;;;0.50;;
7813;SDS011;3952;48.364;16.022;2023-03-14T12:56:11;0.67;;;0.40;;
7813;SDS011;3952;48.364;16.022;2023-03-14T12:58:54;1.17;;;0.70;;
7813;SDS011;3952;48.364;16.022;2023-03-14T13:01:47;1.50;;;0.70;;
7813;SDS011;3952;48.364;16.022;2023-03-14T13:04:20;2.17;;;0.57;;
7813;SDS011;3952;48.364;16.022;2023-03-14T13:06:58;1.40;;;0.70;;
7813;SDS011;3952;48.364;16.022;2023-03-14T13:12:29;0.87;;;0.43;;
7813;SDS011;3952;48.364;16.022;2023-03-14T13:15:12;0.67;;;0.20;;
7813;SDS011;3952;48.364;16.022;2023-03-14T13:17:56;0.27;;;0.27;;
7813;SDS011;3952;48.364;16.022;2023-03-14T13:20:30;0.20;;;0.20;;
7813;SDS011;3952;48.364;16.022;2023-03-14T13:23:00;0.20;;;0.20;;
7813;SDS011;3952;48.364;16.022;2023-03-14T13:25:32;0.37;;;0.37;;
7813;SDS011;3952;48.364;16.022;2023-03-14T13:28:01;0.67;;;0.33;;
7813;SDS011;3952;48.364;16.022;2023-03-14T13:30:35;0.30;;;0.30;;
7813;SDS011;3952;48.364;16.022;2023-03-14T13:33:06;0.30;;;0.30;;
7813;SDS011;3952;48.364;16.022;2023-03-14T13:35:39;1.37;;;0.60;;
7813;SDS011;3952;48.364;16.022;2023-03-14T13:38:13;0.50;;;0.50;;
7813;SDS011;3952;48.364;16.022;2023-03-14T13:40:44;0.60;;;0.40;;
7813;SDS011;3952;48.364;16.022;2023-03-14T13:43:16;1.07;;;0.60;;
7813;SDS011;3952;48.364;16.022;2023-03-14T13:45:47;1.20;;;0.50;;
7813;SDS011;3952;48.364;16.022;2023-03-14T13:48:20;1.27;;;0.40;;
7813;SDS011;3952;48.364;16.022;2023-03-14T13:50:53;0.97;;;0.70;;
7813;SDS011;3952;48.364;16.022;2023-03-14T13:53:22;1.77;;;0.73;;
7813;SDS011;3952;48.364;16.022;2023-03-14T13:55:50;3.77;;;0.67;;
7813;SDS011;3952;48.364;16.022;2023-03-14T13:58:25;1.17;;;0.50;;
7813;SDS011;3952;48.364;16.022;2023-03-14T14:00:54;3.63;;;0.87;;
7813;SDS011;3952;48.364;16.022;2023-03-14T14:03:26;1.67;;;0.60;;
7813;SDS011;3952;48.364;16.022;2023-03-14T14:05:54;2.97;;;0.40;;
7813;SDS011;3952;48.364;16.022;2023-03-14T14:08:24;0.40;;;0.27;;
7813;SDS011;3952;48.364;16.022;2023-03-14T14:10:53;1.77;;;0.80;;
7813;SDS011;3952;48.364;16.022;2023-03-14T14:13:24;0.87;;;0.70;;
7813;SDS011;3952;48.364;16.022;2023-03-14T14:15:55;3.77;;;0.90;;
7813;SDS011;3952;48.364;16.022;2023-03-14T14:18:25;2.60;;;0.80;;
7813;SDS011;3952;48.364;16.022;2023-03-14T14:20:54;2.53;;;1.10;;
7813;SDS011;3952;48.364;16.022;2023-03-14T14:23:22;1.60;;;0.90;;
7813;SDS011;3952;48.364;16.022;2023-03-14T14:25:54;1.90;;;0.83;;
7813;SDS011;3952;48.364;16.022;2023-03-14T14:28:23;3.60;;;1.33;;
7813;SDS011;3952;48.364;16.022;2023-03-14T14:31:00;1.27;;;0.57;;
7813;SDS011;3952;48.364;16.022;2023-03-14T14:33:37;0.30;;;0.30;;
7813;SDS011;3952;48.364;16.022;2023-03-14T14:36:11;1.73;;;0.60;;
7813;SDS011;3952;48.364;16.022;2023-03-14T14:38:51;1.03;;;0.53;;
7813;SDS011;3952;48.364;16.022;2023-03-14T14:41:20;2.30;;;1.13;;
7813;SDS011;3952;48.364;16.022;2023-03-14T14:43:48;0.40;;;0.40;;
7813;SDS011;3952;48.364;16.022;2023-03-14T14:46:18;0.30;;;0.20;;
7813;SDS011;3952;48.364;16.022;2023-03-14T14:48:47;1.10;;;0.47;;
7813;SDS011;3952;48.364;16.022;2023-03-14T14:51:23;0.37;;;0.30;;
7813;SDS011;3952;48.364;16.022;2023-03-14T14:54:00;0.10;;;0.10;;
7813;SDS011;3952;48.364;16.022;2023-03-14T14:56:34;0.20;;;0.20;;
7813;SDS011;3952;48.364;16.022;2023-03-14T14:59:04;0.20;;;0.20;;
7813;SDS011;3952;48.364;16.022;2023-03-14T15:01:34;0.30;;;0.30;;
7813;SDS011;3952;48.364;16.022;2023-03-14T15:04:09;1.60;;;0.30;;
7813;SDS011;3952;48.364;16.022;2023-03-14T15:06:39;0.47;;;0.17;;
7813;SDS011;3952;48.364;16.022;2023-03-14T15:09:09;0.60;;;0.30;;
7813;SDS011;3952;48.364;16.022;2023-03-14T15:11:37;0.40;;;0.40;;
7813;SDS011;3952;48.364;16.022;2023-03-14T15:14:04;0.43;;;0.20;;
7813;SDS011;3952;48.364;16.022;2023-03-14T15:16:32;0.90;;;0.40;;
7813;SDS011;3952;48.364;16.022;2023-03-14T15:19:00;2.00;;;0.63;;
7813;SDS011;3952;48.364;16.022;2023-03-14T15:21:32;1.03;;;0.83;;
7813;SDS011;3952;48.364;16.022;2023-03-14T15:23:59;2.17;;;1.23;;
7813;SDS011;3952;48.364;16.022;2023-03-14T15:26:26;2.43;;;0.90;;
7813;SDS011;3952;48.364;16.022;2023-03-14T15:28:55;0.40;;;0.40;;
7813;SDS011;3952;48.364;16.022;2023-03-14T15:31:22;0.23;;;0.23;;